Cleone, California
Current Conditions -  °F | °C
As of 11:11 PM on Saturday 25 Oct 2014 (Local Time) from KUKI Reporting Station
Overcast Overcast  
Wind Chill: 54°   Ceiling: 3000
Heat Index: 54°   Visibility: 10mi
Dew Point: 52°   Wind: 0mph
Humidity: 93%   Direction: NA
Pressure: 30.15"   Gusts: NA
Location:  39.4588°N, 123.715°W
Report Text: KUKI 260611Z AUTO 00000KT 10SM SCT021 BKN030 OVC042 12/11 A3015 RMK AO2 RAE09 P0000 T01220111
Loading
Personal Weather Stations






























Interactive Weather Map
Tropical Storm Tracking
New forecast layout! Learn more

10-Day Weather Forecast

Advertisements
Track Severe Weather on mobile